createdAt,value
2023-04-16T00:00:37.335Z,6.27
2023-04-16T00:03:04.171Z,4.90
2023-04-16T00:05:30.725Z,6.37
2023-04-16T00:07:57.173Z,5.40
2023-04-16T00:10:23.616Z,4.07
2023-04-16T00:12:50.176Z,3.67
2023-04-16T00:15:16.597Z,3.50
2023-04-16T00:17:43.301Z,4.43
2023-04-16T00:20:14.520Z,8.90
2023-04-16T00:22:40.991Z,10.70
2023-04-16T00:25:07.599Z,9.67
2023-04-16T00:27:34.106Z,10.70
2023-04-16T00:30:00.558Z,10.37
2023-04-16T00:32:27.129Z,10.47
2023-04-16T00:34:53.598Z,11.63
2023-04-16T00:37:20.044Z,9.10
2023-04-16T00:39:46.451Z,10.77
2023-04-16T00:42:12.948Z,9.63
2023-04-16T00:44:39.627Z,9.13
2023-04-16T00:47:07.724Z,10.33
2023-04-16T00:49:34.229Z,8.70
2023-04-16T00:52:02.697Z,8.17
2023-04-16T00:54:29.116Z,7.53
2023-04-16T00:56:56.102Z,7.27
2023-04-16T00:59:22.688Z,6.80
2023-04-16T01:01:49.400Z,6.97
2023-04-16T01:04:16.325Z,8.53
2023-04-16T01:06:42.912Z,8.33
2023-04-16T01:09:10.207Z,6.13
2023-04-16T01:11:38.021Z,6.70
2023-04-16T01:14:04.498Z,6.67
2023-04-16T01:16:32.664Z,6.17
2023-04-16T01:18:59.328Z,6.20
2023-04-16T01:21:26.572Z,7.37
2023-04-16T01:23:52.990Z,7.83
2023-04-16T01:26:19.444Z,5.03
2023-04-16T01:28:45.921Z,6.27
2023-04-16T01:31:12.358Z,6.70
2023-04-16T01:33:38.991Z,6.13
2023-04-16T01:36:05.712Z,8.80
2023-04-16T01:38:32.179Z,5.80
2023-04-16T01:40:59.558Z,7.57
2023-04-16T01:43:26.211Z,12.03
2023-04-16T01:45:52.882Z,9.07
2023-04-16T01:48:19.364Z,11.47
2023-04-16T01:50:45.919Z,8.13
2023-04-16T01:53:12.510Z,7.50
2023-04-16T01:55:38.985Z,8.53
2023-04-16T01:58:07.434Z,7.73
2023-04-16T02:00:33.853Z,6.40
2023-04-16T02:03:00.490Z,5.53
2023-04-16T02:05:27.088Z,7.37
2023-04-16T02:07:53.542Z,6.70
2023-04-16T02:10:19.981Z,6.43
2023-04-16T02:12:46.488Z,13.33
2023-04-16T02:15:12.989Z,10.27
2023-04-16T02:17:39.513Z,5.30
2023-04-16T02:20:08.304Z,4.40
2023-04-16T02:22:34.874Z,4.57
2023-04-16T02:25:01.279Z,3.60
2023-04-16T02:27:27.694Z,3.13
2023-04-16T02:29:54.149Z,2.87
2023-04-16T02:32:20.833Z,6.17
2023-04-16T02:34:47.263Z,4.73
2023-04-16T02:37:15.402Z,3.70
2023-04-16T02:39:42.940Z,6.47
2023-04-16T02:42:09.563Z,5.43
2023-04-16T02:44:36.153Z,5.57
2023-04-16T02:47:02.588Z,3.67
2023-04-16T02:49:29.236Z,3.50
2023-04-16T02:51:55.734Z,5.00
2023-04-16T02:54:22.146Z,5.20
2023-04-16T02:56:48.572Z,4.10
2023-04-16T02:59:15.308Z,4.80
2023-04-16T03:01:41.851Z,3.40
2023-04-16T03:04:08.597Z,4.30
2023-04-16T03:06:35.009Z,4.53
2023-04-16T03:09:01.621Z,6.53
2023-04-16T03:11:28.039Z,5.20
2023-04-16T03:13:54.520Z,6.37
2023-04-16T03:16:21.000Z,5.80
2023-04-16T03:18:47.500Z,5.23
2023-04-16T03:21:14.133Z,4.63
2023-04-16T03:23:40.750Z,4.57
2023-04-16T03:26:07.170Z,4.10
2023-04-16T03:28:33.656Z,6.73
2023-04-16T03:31:00.157Z,6.10
2023-04-16T03:33:27.119Z,4.40
2023-04-16T03:35:57.368Z,4.80
2023-04-16T03:38:24.330Z,4.83
2023-04-16T03:40:50.774Z,6.37
2023-04-16T03:43:17.257Z,4.93
2023-04-16T03:45:44.692Z,4.27
2023-04-16T03:48:11.403Z,4.20
2023-04-16T03:50:38.060Z,4.17
2023-04-16T03:53:04.487Z,6.47
2023-04-16T03:55:31.091Z,4.27
2023-04-16T03:57:57.794Z,4.00
2023-04-16T04:00:24.205Z,5.13
2023-04-16T04:02:50.960Z,6.27
2023-04-16T04:05:17.550Z,6.30
2023-04-16T04:07:43.988Z,5.03
2023-04-16T04:10:10.612Z,6.63
2023-04-16T04:12:37.387Z,6.47
2023-04-16T04:15:04.022Z,5.10
2023-04-16T04:17:30.504Z,5.60
2023-04-16T04:20:01.284Z,5.53
2023-04-16T04:22:28.608Z,5.50
2023-04-16T04:24:55.187Z,3.40
2023-04-16T04:27:21.609Z,4.07
2023-04-16T04:29:48.056Z,4.83
2023-04-16T04:32:14.772Z,5.53
2023-04-16T04:34:41.207Z,4.17
2023-04-16T04:37:07.669Z,6.80
2023-04-16T04:39:34.080Z,6.77
2023-04-16T04:42:03.381Z,5.25
2023-04-16T04:44:30.044Z,5.90
2023-04-16T04:46:56.830Z,6.05
2023-04-16T04:49:23.362Z,6.20
2023-04-16T04:51:50.049Z,6.00
2023-04-16T04:54:16.699Z,6.28
2023-04-16T04:56:45.384Z,6.55
2023-04-16T04:59:12.135Z,6.15
2023-04-16T05:01:38.780Z,5.97
2023-04-16T05:04:05.508Z,6.82
2023-04-16T05:06:32.177Z,6.82
2023-04-16T05:08:58.604Z,9.85
2023-04-16T05:11:25.088Z,6.70
2023-04-16T05:13:51.934Z,4.88
2023-04-16T05:16:18.452Z,4.38
2023-04-16T05:18:44.934Z,4.70
2023-04-16T05:21:11.519Z,4.05
2023-04-16T05:23:37.988Z,4.38
2023-04-16T05:26:04.425Z,3.97
2023-04-16T05:28:31.428Z,4.00
2023-04-16T05:30:57.902Z,3.60
2023-04-16T05:33:24.420Z,5.47
2023-04-16T05:35:51.120Z,5.05
2023-04-16T05:38:17.542Z,4.30
2023-04-16T05:40:43.982Z,5.00
2023-04-16T05:43:10.586Z,5.22
2023-04-16T05:45:41.239Z,4.53
2023-04-16T05:48:09.140Z,5.38
2023-04-16T05:50:35.863Z,5.68
2023-04-16T05:53:02.911Z,5.30
2023-04-16T05:55:29.392Z,4.28
2023-04-16T05:57:55.848Z,3.90
2023-04-16T06:00:22.315Z,4.93
2023-04-16T06:02:48.935Z,5.40
2023-04-16T06:05:15.648Z,8.15
2023-04-16T06:07:42.300Z,9.02
2023-04-16T06:10:08.882Z,12.13
2023-04-16T06:12:35.395Z,9.63
2023-04-16T06:15:01.989Z,6.13
2023-04-16T06:17:28.646Z,4.60
2023-04-16T06:19:55.115Z,4.05
2023-04-16T06:22:21.546Z,3.30
2023-04-16T06:24:48.137Z,3.15
2023-04-16T06:27:14.628Z,3.75
2023-04-16T06:29:41.959Z,3.10
2023-04-16T06:32:08.540Z,3.97
2023-04-16T06:34:35.048Z,3.15
2023-04-16T06:37:01.559Z,2.85
2023-04-16T06:39:28.405Z,2.85
2023-04-16T06:41:54.820Z,2.42
2023-04-16T06:44:21.514Z,2.30
2023-04-16T06:46:48.177Z,2.13
2023-04-16T06:49:14.682Z,2.80
2023-04-16T06:51:41.814Z,3.58
2023-04-16T06:54:08.302Z,2.15
2023-04-16T06:56:35.895Z,2.38
2023-04-16T06:59:02.504Z,2.08
2023-04-16T07:01:29.105Z,2.53
2023-04-16T07:03:56.111Z,2.83
2023-04-16T07:06:22.752Z,2.45
2023-04-16T07:08:49.319Z,3.83
2023-04-16T07:11:16.402Z,2.83
2023-04-16T07:13:42.858Z,2.90
2023-04-16T07:16:09.794Z,3.38
2023-04-16T07:18:36.380Z,4.13
2023-04-16T07:21:02.846Z,3.67
2023-04-16T07:23:29.323Z,3.47
2023-04-16T07:25:56.064Z,2.60
2023-04-16T07:28:22.483Z,2.53
2023-04-16T07:30:48.955Z,3.47
2023-04-16T07:33:15.442Z,2.40
2023-04-16T07:35:42.048Z,2.05
2023-04-16T07:38:08.485Z,2.47
2023-04-16T07:40:35.582Z,1.77
2023-04-16T07:43:02.106Z,2.33
2023-04-16T07:45:28.523Z,2.15
2023-04-16T07:47:55.019Z,3.30
2023-04-16T07:50:21.502Z,3.13
2023-04-16T07:52:47.976Z,2.60
2023-04-16T07:55:14.448Z,3.38
2023-04-16T07:57:41.347Z,2.72
2023-04-16T08:00:08.459Z,2.17
2023-04-16T08:02:35.037Z,3.00
2023-04-16T08:05:01.612Z,2.55
2023-04-16T08:07:28.057Z,2.50
2023-04-16T08:09:54.598Z,1.52
2023-04-16T08:12:21.213Z,1.73
2023-04-16T08:14:47.761Z,1.63
2023-04-16T08:17:14.584Z,1.88
2023-04-16T08:19:41.879Z,2.63
2023-04-16T08:22:08.393Z,2.45
2023-04-16T08:24:35.081Z,1.60
2023-04-16T08:27:11.488Z,2.00
2023-04-16T08:29:44.725Z,1.90
2023-04-16T08:32:11.220Z,1.75
2023-04-16T08:34:37.715Z,1.83
2023-04-16T08:37:04.477Z,1.70
2023-04-16T08:39:30.924Z,1.95
2023-04-16T08:41:57.433Z,1.40
2023-04-16T08:44:27.815Z,1.90
2023-04-16T08:46:58.793Z,1.48
2023-04-16T08:49:25.806Z,1.40
2023-04-16T08:51:53.051Z,1.88
2023-04-16T08:54:31.469Z,1.90
2023-04-16T08:56:58.222Z,1.27
2023-04-16T08:59:24.681Z,1.92
2023-04-16T09:01:52.456Z,1.70
2023-04-16T09:04:20.322Z,1.75
2023-04-16T09:06:46.881Z,1.42
2023-04-16T09:09:13.330Z,1.10
2023-04-16T09:11:39.901Z,0.95
2023-04-16T09:14:07.497Z,0.93
2023-04-16T09:16:34.013Z,1.42
2023-04-16T09:19:00.739Z,0.95
2023-04-16T09:21:28.111Z,1.10
2023-04-16T09:23:54.484Z,1.63
2023-04-16T09:26:21.850Z,1.25
2023-04-16T09:28:49.049Z,1.00
2023-04-16T09:31:18.942Z,1.13
2023-04-16T09:34:00.600Z,1.63
2023-04-16T09:36:27.827Z,0.85
2023-04-16T09:38:56.919Z,1.48
2023-04-16T09:41:30.933Z,2.85
2023-04-16T09:44:01.871Z,1.67
2023-04-16T09:46:35.117Z,1.20
2023-04-16T09:49:11.452Z,1.92
2023-04-16T09:51:38.294Z,1.50
2023-04-16T09:54:05.122Z,1.70
2023-04-16T09:56:31.594Z,0.98
2023-04-16T09:58:59.807Z,1.33
2023-04-16T10:01:26.269Z,1.58
2023-04-16T10:03:53.808Z,1.15
2023-04-16T10:06:20.766Z,1.13
2023-04-16T10:08:50.738Z,1.38
2023-04-16T10:11:17.486Z,1.05
2023-04-16T10:13:43.912Z,1.23
2023-04-16T10:16:10.579Z,2.13
2023-04-16T10:18:38.249Z,1.42
2023-04-16T10:21:04.903Z,1.30
2023-04-16T10:23:32.339Z,1.75
2023-04-16T10:25:58.935Z,2.00
2023-04-16T10:28:25.341Z,1.40
2023-04-16T10:30:57.588Z,2.83
2023-04-16T10:33:33.859Z,1.67
2023-04-16T10:36:19.158Z,1.65
2023-04-16T10:38:46.610Z,2.20
2023-04-16T10:41:13.277Z,1.90
2023-04-16T10:43:47.178Z,2.25
2023-04-16T10:46:19.694Z,1.57
2023-04-16T10:48:50.129Z,1.55
2023-04-16T10:51:35.945Z,2.92
2023-04-16T10:56:30.546Z,2.00
2023-04-16T10:58:57.040Z,2.17
2023-04-16T11:01:34.035Z,1.98
2023-04-16T11:04:21.350Z,2.35
2023-04-16T11:07:06.790Z,2.00
2023-04-16T11:11:59.836Z,1.77
2023-04-16T11:14:26.248Z,1.27
2023-04-16T11:16:52.682Z,1.23
2023-04-16T11:19:19.282Z,2.38
2023-04-16T11:21:45.699Z,2.13
2023-04-16T11:24:12.686Z,1.67
2023-04-16T11:26:39.294Z,1.90
2023-04-16T11:29:11.755Z,2.70
2023-04-16T11:31:38.464Z,1.42
2023-04-16T11:34:08.418Z,1.27
2023-04-16T11:36:44.712Z,1.70
2023-04-16T11:39:11.680Z,2.17
2023-04-16T11:41:44.788Z,1.77
2023-04-16T11:44:23.923Z,1.63
2023-04-16T11:46:50.738Z,2.55
2023-04-16T11:49:20.028Z,2.67
2023-04-16T11:51:47.148Z,1.52
2023-04-16T11:54:20.441Z,1.88
2023-04-16T11:56:49.785Z,2.35
2023-04-16T11:59:20.342Z,1.63
2023-04-16T12:01:50.601Z,1.45
2023-04-16T12:04:17.952Z,1.80
2023-04-16T12:07:03.231Z,1.63
2023-04-16T12:09:29.632Z,2.15
2023-04-16T12:11:56.119Z,1.88
2023-04-16T12:14:22.701Z,3.20
2023-04-16T12:16:49.254Z,2.38
2023-04-16T12:19:15.919Z,1.80
2023-04-16T12:21:43.083Z,1.45
2023-04-16T12:24:10.220Z,3.45
2023-04-16T12:26:40.266Z,2.30
2023-04-16T12:29:16.890Z,2.42
2023-04-16T12:31:43.553Z,1.88
2023-04-16T12:34:10.605Z,2.28
2023-04-16T12:36:37.370Z,6.95
2023-04-16T12:39:04.180Z,1.60
2023-04-16T12:41:30.650Z,2.35
2023-04-16T12:44:09.111Z,1.60
2023-04-16T12:46:36.955Z,3.38
2023-04-16T12:49:03.604Z,1.98
2023-04-16T12:51:30.270Z,1.85
2023-04-16T12:53:56.721Z,2.03
2023-04-16T12:56:23.198Z,1.60
2023-04-16T12:58:52.857Z,1.50
2023-04-16T13:01:19.533Z,2.42
2023-04-16T13:03:46.416Z,2.00
2023-04-16T13:06:13.712Z,1.98
2023-04-16T13:08:40.538Z,1.67
2023-04-16T13:11:07.520Z,2.30
2023-04-16T13:13:34.024Z,1.58
2023-04-16T13:16:00.463Z,1.75
2023-04-16T13:18:28.069Z,1.90
2023-04-16T13:20:54.548Z,1.88
2023-04-16T13:23:21.020Z,1.60
2023-04-16T13:25:48.916Z,1.30
2023-04-16T13:28:16.886Z,1.85
2023-04-16T13:30:43.494Z,1.52
2023-04-16T13:33:12.448Z,1.65
2023-04-16T13:35:39.401Z,2.10
2023-04-16T13:38:06.527Z,1.95
2023-04-16T13:40:33.342Z,1.70
2023-04-16T13:43:00.227Z,1.50
2023-04-16T13:45:27.905Z,1.35
2023-04-16T13:47:54.512Z,1.63
2023-04-16T13:50:21.212Z,1.60
2023-04-16T13:52:47.830Z,2.08
2023-04-16T13:55:14.272Z,1.70
2023-04-16T13:57:41.185Z,1.52
2023-04-16T14:00:08.407Z,1.52
2023-04-16T14:02:34.951Z,1.45
2023-04-16T14:05:01.560Z,3.05
2023-04-16T14:07:28.027Z,2.30
2023-04-16T14:09:54.468Z,1.73
2023-04-16T14:12:20.883Z,1.88
2023-04-16T14:14:47.376Z,1.73
2023-04-16T14:17:13.990Z,2.83
2023-04-16T14:19:40.533Z,1.80
2023-04-16T14:22:08.793Z,2.03
2023-04-16T14:24:36.253Z,2.08
2023-04-16T14:27:03.118Z,2.15
2023-04-16T14:29:31.133Z,2.55
2023-04-16T14:31:57.580Z,2.80
2023-04-16T14:34:24.241Z,2.70
2023-04-16T14:36:51.952Z,2.25
2023-04-16T14:39:18.503Z,2.20
2023-04-16T14:41:44.931Z,2.17
2023-04-16T14:44:11.346Z,2.88
2023-04-16T14:46:38.582Z,2.30
2023-04-16T14:49:05.064Z,3.08
2023-04-16T14:51:31.802Z,2.25
2023-04-16T14:53:58.233Z,2.42
2023-04-16T14:56:24.812Z,3.17
2023-04-16T14:58:51.236Z,2.42
2023-04-16T15:01:17.873Z,2.60
2023-04-16T15:03:44.591Z,2.88
2023-04-16T15:06:11.702Z,2.83
2023-04-16T15:08:38.198Z,2.42
2023-04-16T15:11:04.758Z,3.38
2023-04-16T15:13:33.988Z,2.72
2023-04-16T15:16:01.487Z,3.13
2023-04-16T15:18:29.189Z,3.10
2023-04-16T15:20:55.713Z,3.47
2023-04-16T15:23:22.152Z,3.13
2023-04-16T15:25:48.622Z,3.92
2023-04-16T15:28:15.101Z,4.28
2023-04-16T15:30:41.704Z,3.08
2023-04-16T15:33:08.434Z,3.47
2023-04-16T15:35:35.460Z,3.53
2023-04-16T15:38:02.094Z,2.97
2023-04-16T15:40:28.585Z,4.00
2023-04-16T15:42:55.263Z,3.65
2023-04-16T15:45:21.786Z,4.05
2023-04-16T15:47:51.382Z,4.15
2023-04-16T15:50:18.226Z,5.18
2023-04-16T15:52:44.968Z,3.97
2023-04-16T15:55:11.632Z,3.15
2023-04-16T15:57:38.057Z,5.38
2023-04-16T16:00:13.453Z,4.18
2023-04-16T16:02:40.808Z,4.03
2023-04-16T16:05:09.396Z,3.50
2023-04-16T16:07:36.029Z,3.92
2023-04-16T16:10:02.622Z,5.03
2023-04-16T16:12:29.593Z,3.88
2023-04-16T16:14:56.180Z,4.50
2023-04-16T16:17:22.736Z,4.10
2023-04-16T16:19:49.402Z,4.15
2023-04-16T16:22:20.391Z,4.15
2023-04-16T16:24:49.145Z,11.80
2023-04-16T16:27:15.886Z,3.95
2023-04-16T16:29:42.310Z,3.45
2023-04-16T16:32:09.035Z,3.95
2023-04-16T16:34:35.484Z,3.85
2023-04-16T16:37:01.893Z,3.58
2023-04-16T16:39:28.391Z,3.78
2023-04-16T16:41:54.881Z,3.65
2023-04-16T16:44:21.520Z,3.25
2023-04-16T16:46:48.093Z,5.00
2023-04-16T16:49:15.071Z,3.95
2023-04-16T16:51:41.634Z,3.58
2023-04-16T16:54:08.076Z,3.42
2023-04-16T16:56:34.794Z,3.63
2023-04-16T16:59:01.384Z,3.83
2023-04-16T17:01:28.095Z,3.42
2023-04-16T17:03:54.909Z,3.40
2023-04-16T17:06:21.534Z,4.03
2023-04-16T17:08:48.027Z,4.97
2023-04-16T17:11:17.621Z,5.20
2023-04-16T17:13:44.092Z,10.00
2023-04-16T17:16:10.598Z,8.57
2023-04-16T17:18:37.054Z,11.13
2023-04-16T17:21:04.024Z,6.75
2023-04-16T17:23:30.501Z,7.32
2023-04-16T17:25:58.525Z,5.00
2023-04-16T17:28:26.142Z,4.47
2023-04-16T17:30:55.336Z,5.25
2023-04-16T17:33:21.926Z,5.15
2023-04-16T17:35:48.520Z,5.97
2023-04-16T17:38:14.958Z,5.90
2023-04-16T17:40:41.573Z,4.88
2023-04-16T17:43:09.249Z,7.35
2023-04-16T17:45:36.475Z,10.35
2023-04-16T17:48:03.070Z,8.00
2023-04-16T17:50:29.545Z,8.23
2023-04-16T17:52:56.079Z,7.68
2023-04-16T17:55:22.526Z,6.57
2023-04-16T17:57:49.105Z,7.47
2023-04-16T18:00:16.218Z,7.18
2023-04-16T18:02:42.894Z,7.93
2023-04-16T18:05:09.629Z,7.35
2023-04-16T18:07:37.550Z,7.50
2023-04-16T18:10:04.159Z,7.45
2023-04-16T18:12:30.792Z,7.47
2023-04-16T18:14:57.362Z,6.60
2023-04-16T18:17:24.296Z,6.70
2023-04-16T18:19:51.927Z,7.38
2023-04-16T18:22:18.432Z,9.85
2023-04-16T18:24:44.862Z,6.55
2023-04-16T18:27:11.996Z,7.45
2023-04-16T18:29:40.452Z,10.75
2023-04-16T18:32:09.879Z,6.50
2023-04-16T18:34:38.331Z,5.70
2023-04-16T18:37:04.853Z,6.90
2023-04-16T18:39:32.725Z,6.15
2023-04-16T18:41:59.278Z,7.65
2023-04-16T18:44:25.716Z,6.20
2023-04-16T18:46:52.171Z,7.32
2023-04-16T18:49:18.655Z,9.63
2023-04-16T18:51:45.072Z,6.88
2023-04-16T18:54:11.550Z,7.28
2023-04-16T18:56:38.603Z,8.82
2023-04-16T18:59:05.058Z,7.18
2023-04-16T19:01:31.654Z,8.57
2023-04-16T19:03:58.210Z,8.23
2023-04-16T19:06:24.631Z,9.57
2023-04-16T19:08:51.223Z,8.70
2023-04-16T19:11:17.676Z,9.10
2023-04-16T19:13:44.792Z,7.13
2023-04-16T19:16:12.355Z,8.98
2023-04-16T19:18:43.059Z,7.93
2023-04-16T19:21:10.891Z,10.23
2023-04-16T19:23:37.590Z,9.00
2023-04-16T19:26:05.544Z,9.32
2023-04-16T19:28:31.971Z,8.13
2023-04-16T19:30:58.464Z,8.75
2023-04-16T19:33:24.890Z,10.45
2023-04-16T19:35:51.727Z,8.98
2023-04-16T19:38:18.275Z,12.07
2023-04-16T19:40:46.280Z,9.95
2023-04-16T19:43:12.885Z,8.68
2023-04-16T19:45:46.209Z,8.68
2023-04-16T19:48:12.822Z,8.27
2023-04-16T19:50:40.498Z,14.35
2023-04-16T19:53:07.371Z,9.45
2023-04-16T19:55:34.755Z,10.70
2023-04-16T19:58:06.039Z,11.35
2023-04-16T20:00:33.774Z,12.13
2023-04-16T20:03:00.350Z,14.05
2023-04-16T20:05:26.947Z,12.30
2023-04-16T20:07:53.790Z,13.70
2023-04-16T20:10:20.443Z,13.48
2023-04-16T20:12:47.363Z,12.93
2023-04-16T20:15:13.863Z,12.48
2023-04-16T20:17:40.431Z,13.80
2023-04-16T20:20:15.595Z,11.73
2023-04-16T20:22:42.272Z,12.10
2023-04-16T20:25:09.113Z,11.13
2023-04-16T20:27:35.921Z,14.40
2023-04-16T20:30:02.594Z,13.60
2023-04-16T20:32:29.071Z,13.68
2023-04-16T20:34:55.782Z,13.93
2023-04-16T20:37:22.508Z,15.50
2023-04-16T20:39:50.176Z,18.35
2023-04-16T20:42:18.309Z,15.85
2023-04-16T20:44:50.638Z,14.90
2023-04-16T20:47:17.358Z,16.13
2023-04-16T20:49:46.801Z,17.20
2023-04-16T20:52:13.468Z,17.98
2023-04-16T20:54:40.172Z,16.75
2023-04-16T20:57:06.707Z,17.00
2023-04-16T20:59:33.229Z,15.02
2023-04-16T21:01:59.758Z,19.05
2023-04-16T21:04:26.438Z,15.52
2023-04-16T21:06:56.006Z,17.88
2023-04-16T21:09:24.142Z,15.85
2023-04-16T21:11:50.800Z,16.45
2023-04-16T21:14:20.622Z,19.17
2023-04-16T21:16:47.129Z,23.77
2023-04-16T21:19:15.148Z,19.58
2023-04-16T21:21:41.917Z,17.90
2023-04-16T21:24:08.417Z,18.33
2023-04-16T21:26:34.899Z,16.75
2023-04-16T21:29:01.338Z,17.95
2023-04-16T21:31:28.206Z,16.63
2023-04-16T21:33:54.755Z,18.48
2023-04-16T21:36:21.196Z,15.65
2023-04-16T21:38:47.858Z,18.58
2023-04-16T21:41:14.312Z,18.20
2023-04-16T21:43:40.764Z,15.40
2023-04-16T21:46:07.374Z,19.75
2023-04-16T21:48:33.965Z,17.48
2023-04-16T21:51:06.203Z,18.02
2023-04-16T21:53:32.943Z,14.70
2023-04-16T21:55:59.610Z,12.98
2023-04-16T21:58:26.203Z,12.68
2023-04-16T22:00:54.047Z,12.07
2023-04-16T22:03:26.445Z,14.73
2023-04-16T22:06:02.571Z,12.68
2023-04-16T22:08:29.480Z,16.13
2023-04-16T22:10:56.459Z,16.20
2023-04-16T22:13:24.530Z,15.50
2023-04-16T22:15:51.057Z,13.80
2023-04-16T22:18:18.230Z,13.07
2023-04-16T22:20:47.183Z,13.60
2023-04-16T22:23:13.943Z,13.85
2023-04-16T22:25:40.824Z,13.55
2023-04-16T22:28:07.288Z,13.07
2023-04-16T22:30:33.734Z,14.32
2023-04-16T22:33:00.514Z,13.30
2023-04-16T22:35:26.935Z,13.27
2023-04-16T22:37:53.406Z,14.15
2023-04-16T22:40:19.804Z,15.43
2023-04-16T22:42:46.389Z,17.08
2023-04-16T22:45:12.913Z,15.32
2023-04-16T22:47:39.533Z,13.07
2023-04-16T22:50:06.524Z,14.68
2023-04-16T22:52:32.977Z,14.38
2023-04-16T22:54:59.392Z,13.30
2023-04-16T22:57:26.482Z,13.63
2023-04-16T22:59:53.186Z,15.70
2023-04-16T23:02:20.073Z,13.68
2023-04-16T23:04:47.977Z,14.85
2023-04-16T23:07:14.794Z,14.45
2023-04-16T23:09:41.299Z,14.43
2023-04-16T23:12:07.812Z,15.13
2023-04-16T23:14:35.043Z,13.55
2023-04-16T23:17:01.486Z,14.15
2023-04-16T23:19:28.152Z,17.58
2023-04-16T23:21:54.639Z,13.45
2023-04-16T23:24:41.723Z,15.50
2023-04-16T23:27:23.932Z,14.68
2023-04-16T23:29:50.768Z,19.75
2023-04-16T23:32:17.346Z,17.75
2023-04-16T23:34:43.879Z,17.30
2023-04-16T23:37:10.437Z,12.93
2023-04-16T23:39:37.130Z,27.63
2023-04-16T23:42:03.844Z,27.05
2023-04-16T23:44:30.691Z,26.05
2023-04-16T23:46:57.620Z,27.15
2023-04-16T23:49:24.181Z,28.35
2023-04-16T23:51:50.704Z,28.08
2023-04-16T23:54:17.326Z,26.15
2023-04-16T23:56:43.755Z,26.20
2023-04-16T23:59:11.299Z,26.48
